Saint-Charles-Sur-Richelieu, Canada
Current Conditions -  °F | °C
As of 3:02 PM on Thursday 23 Oct 2014 (Local Time) from CYHU Reporting Station
Moderate Rain Moderate Rain  
Wind Chill: 38°   Ceiling: 1700
Heat Index: 45°   Visibility: 9mi
Dew Point: 41°   Wind: 13mph
Humidity: 87%   Direction: 30°NNE
Pressure: 30.01"   Gusts: 20mph
Location:  45.68°N, 73.18°W
Report Text: CYHU 231902Z AUTO 03011G17KT 9SM RA BKN017 OVC025 07/05 A3001 RMK SLP163
Loading
Personal Weather Stations






























Interactive Weather Map New forecast layout! Learn more

10-Day Weather Forecast

Advertisements
Track Severe Weather on mobile